createdAt,value
2023-05-12T00:00:29.418Z,83.00
2023-05-12T00:02:29.351Z,83.00
2023-05-12T00:04:29.290Z,83.00
2023-05-12T00:06:29.374Z,83.00
2023-05-12T00:08:29.335Z,83.00
2023-05-12T00:10:29.328Z,83.00
2023-05-12T00:12:29.324Z,83.00
2023-05-12T00:14:29.305Z,83.00
2023-05-12T00:16:30.127Z,83.00
2023-05-12T00:18:29.402Z,83.00
2023-05-12T00:20:29.329Z,83.00
2023-05-12T00:22:33.557Z,83.00
2023-05-12T00:25:29.319Z,83.00
2023-05-12T00:27:29.316Z,83.00
2023-05-12T00:29:29.394Z,83.00
2023-05-12T00:31:29.426Z,83.00
2023-05-12T00:33:29.293Z,83.00
2023-05-12T00:35:29.761Z,83.00
2023-05-12T00:37:29.301Z,83.00
2023-05-12T00:39:29.397Z,83.00
2023-05-12T00:41:29.298Z,83.00
2023-05-12T00:43:29.418Z,83.00
2023-05-12T00:45:29.360Z,83.00
2023-05-12T00:47:29.430Z,83.00
2023-05-12T00:49:29.345Z,83.00
2023-05-12T00:51:29.320Z,83.00
2023-05-12T00:53:44.953Z,83.00
2023-05-12T00:55:29.418Z,83.00
2023-05-12T00:57:29.394Z,83.00
2023-05-12T00:59:29.394Z,83.00
2023-05-12T01:01:29.370Z,83.00
2023-05-12T01:03:29.553Z,84.00
2023-05-12T01:05:29.319Z,84.00
2023-05-12T01:07:29.431Z,83.00
2023-05-12T01:09:29.384Z,83.00
2023-05-12T01:11:29.438Z,83.00
2023-05-12T01:13:29.411Z,83.00
2023-05-12T01:15:29.320Z,83.00
2023-05-12T01:17:29.503Z,83.00
2023-05-12T01:19:29.385Z,83.00
2023-05-12T01:21:33.512Z,83.00
2023-05-12T01:23:31.611Z,83.00
2023-05-12T01:25:29.429Z,83.00
2023-05-12T01:27:29.355Z,83.00
2023-05-12T01:29:29.319Z,83.00
2023-05-12T01:31:29.547Z,84.00
2023-05-12T01:33:29.363Z,84.00
2023-05-12T01:35:29.378Z,83.00
2023-05-12T01:37:29.361Z,83.00
2023-05-12T01:39:31.895Z,84.00
2023-05-12T01:41:29.382Z,83.00
2023-05-12T01:43:29.335Z,83.00
2023-05-12T01:45:29.377Z,84.00
2023-05-12T01:47:29.534Z,84.00
2023-05-12T01:49:29.410Z,84.00
2023-05-12T01:51:29.506Z,84.00
2023-05-12T01:53:29.431Z,84.00
2023-05-12T01:55:32.524Z,84.00
2023-05-12T01:57:29.464Z,84.00
2023-05-12T01:59:29.477Z,84.00
2023-05-12T02:01:29.555Z,84.00
2023-05-12T02:03:29.530Z,84.00
2023-05-12T02:05:29.492Z,84.00
2023-05-12T02:07:29.460Z,84.00
2023-05-12T02:09:29.562Z,84.00
2023-05-12T02:11:29.380Z,84.00
2023-05-12T02:13:29.453Z,84.00
2023-05-12T02:15:29.442Z,84.00
2023-05-12T02:17:29.467Z,84.00
2023-05-12T02:19:29.426Z,84.00
2023-05-12T02:21:29.594Z,84.00
2023-05-12T02:23:29.584Z,84.00
2023-05-12T02:25:29.493Z,84.00
2023-05-12T02:27:29.402Z,84.00
2023-05-12T02:29:29.556Z,84.00
2023-05-12T02:31:29.435Z,84.00
2023-05-12T02:33:29.402Z,84.00
2023-05-12T02:35:29.431Z,84.00
2023-05-12T02:37:29.382Z,84.00
2023-05-12T02:39:29.367Z,84.00
2023-05-12T02:41:29.637Z,84.00
2023-05-12T02:43:29.435Z,84.00
2023-05-12T02:45:29.574Z,84.00
2023-05-12T02:47:29.449Z,84.00
2023-05-12T02:49:29.541Z,84.00
2023-05-12T02:51:29.433Z,84.00
2023-05-12T02:53:29.402Z,84.00
2023-05-12T02:55:34.311Z,84.00
2023-05-12T02:57:29.432Z,84.00
2023-05-12T02:59:29.635Z,84.00
2023-05-12T03:01:33.374Z,84.00
2023-05-12T03:03:29.460Z,84.00
2023-05-12T03:05:29.463Z,84.00
2023-05-12T03:07:29.437Z,84.00
2023-05-12T03:09:29.579Z,84.00
2023-05-12T03:11:29.559Z,84.00
2023-05-12T03:13:29.464Z,84.00
2023-05-12T03:15:29.452Z,84.00
2023-05-12T03:17:29.509Z,84.00
2023-05-12T03:19:29.518Z,84.00
2023-05-12T03:21:29.425Z,84.00
2023-05-12T03:23:29.402Z,84.00
2023-05-12T03:25:29.441Z,84.00
2023-05-12T03:27:29.563Z,84.00
2023-05-12T03:29:29.411Z,84.00
2023-05-12T03:31:29.509Z,84.00
2023-05-12T03:33:29.553Z,84.00
2023-05-12T03:35:29.562Z,84.00
2023-05-12T03:37:29.415Z,84.00
2023-05-12T03:39:29.437Z,84.00
2023-05-12T03:41:29.547Z,84.00
2023-05-12T03:43:29.542Z,84.00
2023-05-12T03:45:29.482Z,84.00
2023-05-12T03:47:29.562Z,84.00
2023-05-12T03:49:29.439Z,84.00
2023-05-12T03:51:29.647Z,84.00
2023-05-12T03:53:29.609Z,84.00
2023-05-12T03:55:29.483Z,84.00
2023-05-12T03:58:29.653Z,84.00
2023-05-12T04:00:31.418Z,84.00
2023-05-12T04:02:29.888Z,84.00
2023-05-12T04:03:33.173Z,84.00
2023-05-12T04:07:42.139Z,84.00
2023-05-12T04:09:42.086Z,84.00
2023-05-12T04:11:42.107Z,84.00
2023-05-12T04:13:42.278Z,84.00
2023-05-12T04:15:42.079Z,84.00
2023-05-12T04:17:42.066Z,84.00
2023-05-12T04:19:42.420Z,84.00
2023-05-12T04:21:43.052Z,84.00
2023-05-12T04:23:42.014Z,84.00
2023-05-12T04:25:42.336Z,84.00
2023-05-12T04:27:42.643Z,84.00
2023-05-12T04:29:42.271Z,84.00
2023-05-12T04:31:42.255Z,84.00
2023-05-12T04:33:47.547Z,84.00
2023-05-12T04:35:42.041Z,84.00
2023-05-12T04:37:45.979Z,84.00
2023-05-12T04:39:42.118Z,84.00
2023-05-12T04:42:42.035Z,84.00
2023-05-12T04:44:42.367Z,84.00
2023-05-12T04:46:42.416Z,84.00
2023-05-12T04:48:42.191Z,84.00
2023-05-12T04:50:42.028Z,84.00
2023-05-12T04:52:42.070Z,84.00
2023-05-12T04:54:42.062Z,84.00
2023-05-12T04:56:42.104Z,84.00
2023-05-12T04:58:42.025Z,84.00
2023-05-12T05:00:46.378Z,84.00
2023-05-12T05:02:42.298Z,84.00
2023-05-12T05:04:45.105Z,84.00
2023-05-12T05:06:42.136Z,84.00
2023-05-12T05:08:42.225Z,84.00
2023-05-12T05:10:42.219Z,84.00
2023-05-12T05:12:42.088Z,84.00
2023-05-12T05:14:42.176Z,84.00
2023-05-12T05:16:42.197Z,84.00
2023-05-12T05:18:42.053Z,84.00
2023-05-12T05:20:45.191Z,84.00
2023-05-12T05:22:42.231Z,84.00
2023-05-12T05:24:42.079Z,84.00
2023-05-12T05:26:42.110Z,84.00
2023-05-12T05:28:42.078Z,84.00
2023-05-12T05:30:42.068Z,84.00
2023-05-12T05:32:42.282Z,84.00
2023-05-12T05:34:42.338Z,84.00
2023-05-12T05:36:42.244Z,84.00
2023-05-12T05:38:42.256Z,84.00
2023-05-12T05:40:53.139Z,84.00
2023-05-12T05:42:42.159Z,84.00
2023-05-12T05:44:42.094Z,84.00
2023-05-12T05:46:42.171Z,84.00
2023-05-12T05:48:42.125Z,84.00
2023-05-12T05:50:42.241Z,84.00
2023-05-12T05:52:42.134Z,84.00
2023-05-12T05:54:42.106Z,84.00
2023-05-12T05:56:42.108Z,84.00
2023-05-12T05:58:42.104Z,84.00
2023-05-12T06:00:42.115Z,84.00
2023-05-12T06:02:42.453Z,84.00
2023-05-12T06:04:42.069Z,84.00
2023-05-12T06:06:45.514Z,84.00
2023-05-12T06:08:42.171Z,84.00
2023-05-12T06:10:45.913Z,84.00
2023-05-12T06:12:42.202Z,84.00
2023-05-12T06:14:42.100Z,84.00
2023-05-12T06:16:42.129Z,84.00
2023-05-12T06:18:42.273Z,84.00
2023-05-12T06:20:42.116Z,84.00
2023-05-12T06:22:42.108Z,84.00
2023-05-12T06:24:42.102Z,84.00
2023-05-12T06:26:42.141Z,84.00
2023-05-12T06:28:42.190Z,84.00
2023-05-12T06:30:42.141Z,84.00
2023-05-12T06:32:42.199Z,84.00
2023-05-12T06:34:42.199Z,84.00
2023-05-12T06:36:42.143Z,84.00
2023-05-12T06:38:42.293Z,84.00
2023-05-12T06:40:42.202Z,84.00
2023-05-12T06:42:43.800Z,84.00
2023-05-12T06:44:42.689Z,84.00
2023-05-12T06:46:42.174Z,84.00
2023-05-12T06:48:42.215Z,84.00
2023-05-12T06:50:42.198Z,84.00
2023-05-12T06:52:42.099Z,84.00
2023-05-12T06:54:42.181Z,84.00
2023-05-12T06:56:44.721Z,83.00
2023-05-12T06:58:42.236Z,83.00
2023-05-12T07:00:42.100Z,83.00
2023-05-12T07:02:42.206Z,83.00
2023-05-12T07:04:42.212Z,83.00
2023-05-12T07:06:42.374Z,83.00
2023-05-12T07:08:45.176Z,83.00
2023-05-12T07:10:42.244Z,83.00
2023-05-12T07:12:42.388Z,83.00
2023-05-12T07:14:42.211Z,83.00
2023-05-12T07:16:42.203Z,83.00
2023-05-12T07:18:42.199Z,83.00
2023-05-12T07:20:42.214Z,83.00
2023-05-12T07:22:42.129Z,83.00
2023-05-12T07:24:42.230Z,83.00
2023-05-12T07:26:42.143Z,83.00
2023-05-12T07:28:42.190Z,83.00
2023-05-12T07:30:42.202Z,83.00
2023-05-12T07:32:42.179Z,83.00
2023-05-12T07:34:42.256Z,83.00
2023-05-12T07:36:42.144Z,82.00
2023-05-12T07:38:44.891Z,82.00
2023-05-12T07:40:42.133Z,82.00
2023-05-12T07:42:42.153Z,81.00
2023-05-12T07:44:42.252Z,81.00
2023-05-12T07:46:42.322Z,81.00
2023-05-12T07:48:42.224Z,81.00
2023-05-12T07:50:42.172Z,81.00
2023-05-12T07:52:42.249Z,81.00
2023-05-12T07:54:42.208Z,81.00
2023-05-12T07:56:42.202Z,80.00
2023-05-12T07:58:42.192Z,80.00
2023-05-12T08:00:42.194Z,80.00
2023-05-12T08:02:42.451Z,80.00
2023-05-12T08:04:44.416Z,80.00
2023-05-12T08:06:42.131Z,80.00
2023-05-12T08:08:42.252Z,80.00
2023-05-12T08:10:42.164Z,81.00
2023-05-12T08:12:42.449Z,81.00
2023-05-12T08:14:45.265Z,81.00
2023-05-12T08:16:42.308Z,81.00
2023-05-12T08:18:42.247Z,81.00
2023-05-12T08:21:42.174Z,81.00
2023-05-12T08:23:42.182Z,81.00
2023-05-12T08:25:42.183Z,81.00
2023-05-12T08:27:42.264Z,80.00
2023-05-12T08:29:42.205Z,80.00
2023-05-12T08:31:42.530Z,80.00
2023-05-12T08:33:42.308Z,80.00
2023-05-12T08:35:42.310Z,80.00
2023-05-12T08:37:42.257Z,80.00
2023-05-12T08:39:42.157Z,80.00
2023-05-12T08:41:42.505Z,80.00
2023-05-12T08:43:42.185Z,80.00
2023-05-12T08:45:45.153Z,80.00
2023-05-12T08:47:42.248Z,80.00
2023-05-12T08:49:42.229Z,80.00
2023-05-12T08:51:42.231Z,80.00
2023-05-12T08:53:42.286Z,80.00
2023-05-12T08:55:43.511Z,80.00
2023-05-12T08:57:42.218Z,80.00
2023-05-12T08:59:42.251Z,80.00
2023-05-12T09:01:42.360Z,80.00
2023-05-12T09:03:42.262Z,80.00
2023-05-12T09:05:44.944Z,80.00
2023-05-12T09:07:42.338Z,80.00
2023-05-12T09:09:42.359Z,80.00
2023-05-12T09:11:42.285Z,80.00
2023-05-12T09:13:42.372Z,81.00
2023-05-12T09:15:42.498Z,81.00
2023-05-12T09:17:42.353Z,81.00
2023-05-12T09:19:42.360Z,80.00
2023-05-12T09:21:43.305Z,80.00
2023-05-12T09:23:42.507Z,79.00
2023-05-12T09:25:42.536Z,79.00
2023-05-12T09:27:43.040Z,79.00
2023-05-12T09:29:55.520Z,79.00
2023-05-12T09:31:42.328Z,79.00
2023-05-12T09:33:42.439Z,79.00
2023-05-12T09:35:42.219Z,79.00
2023-05-12T09:37:42.365Z,79.00
2023-05-12T09:39:42.388Z,78.00
2023-05-12T09:41:42.284Z,78.00
2023-05-12T09:43:42.417Z,78.00
2023-05-12T09:45:42.302Z,78.00
2023-05-12T09:47:45.280Z,78.00
2023-05-12T09:49:42.329Z,79.00
2023-05-12T09:51:42.269Z,79.00
2023-05-12T09:53:42.709Z,79.00
2023-05-12T09:55:42.245Z,79.00
2023-05-12T09:57:42.869Z,79.00
2023-05-12T09:59:43.651Z,79.00
2023-05-12T10:01:42.402Z,79.00
2023-05-12T10:03:42.423Z,78.00
2023-05-12T10:05:42.276Z,78.00
2023-05-12T10:07:42.318Z,78.00
2023-05-12T10:09:44.420Z,78.00
2023-05-12T10:11:42.286Z,78.00
2023-05-12T10:13:42.466Z,78.00
2023-05-12T10:15:42.642Z,78.00
2023-05-12T10:19:42.382Z,77.00
2023-05-12T10:21:42.541Z,77.00
2023-05-12T10:25:42.516Z,77.00
2023-05-12T10:31:42.428Z,77.00
2023-05-12T10:35:54.712Z,77.00
2023-05-12T10:37:54.516Z,77.00
2023-05-12T10:39:54.509Z,77.00
2023-05-12T10:41:54.545Z,77.00
2023-05-12T10:43:54.529Z,77.00
2023-05-12T10:45:54.565Z,77.00
2023-05-12T10:47:54.524Z,77.00
2023-05-12T10:49:54.521Z,78.00
2023-05-12T10:51:54.534Z,78.00
2023-05-12T10:53:54.980Z,78.00
2023-05-12T10:55:54.743Z,78.00
2023-05-12T10:57:54.733Z,78.00
2023-05-12T10:59:55.062Z,78.00
2023-05-12T11:01:55.006Z,78.00
2023-05-12T11:03:54.682Z,78.00
2023-05-12T11:05:54.609Z,78.00
2023-05-12T11:07:54.668Z,78.00
2023-05-12T11:09:59.293Z,78.00
2023-05-12T11:11:54.726Z,78.00
2023-05-12T11:13:54.623Z,78.00
2023-05-12T11:15:54.588Z,78.00
2023-05-12T11:17:54.720Z,77.00
2023-05-12T11:19:57.673Z,77.00
2023-05-12T11:21:54.548Z,77.00
2023-05-12T11:23:54.547Z,77.00
2023-05-12T11:25:54.613Z,77.00
2023-05-12T11:27:54.542Z,77.00
2023-05-12T11:29:54.609Z,77.00
2023-05-12T11:31:54.946Z,77.00
2023-05-12T11:34:08.256Z,76.00
2023-05-12T11:35:54.537Z,76.00
2023-05-12T11:37:54.573Z,76.00
2023-05-12T11:39:54.655Z,76.00
2023-05-12T11:42:02.064Z,76.00
2023-05-12T11:43:54.563Z,76.00
2023-05-12T11:45:54.597Z,76.00
2023-05-12T11:47:54.624Z,76.00
2023-05-12T11:49:54.708Z,76.00
2023-05-12T11:51:54.980Z,75.00
2023-05-12T11:53:54.568Z,75.00
2023-05-12T11:55:54.645Z,74.00
2023-05-12T11:57:54.565Z,74.00
2023-05-12T11:59:54.574Z,74.00
2023-05-12T12:01:54.518Z,74.00
2023-05-12T12:03:54.725Z,74.00
2023-05-12T12:05:54.599Z,75.00
2023-05-12T12:07:54.636Z,75.00
2023-05-12T12:09:54.576Z,75.00
2023-05-12T12:11:57.357Z,75.00
2023-05-12T12:13:54.662Z,75.00
2023-05-12T12:15:54.954Z,75.00
2023-05-12T12:17:54.595Z,75.00
2023-05-12T12:19:54.609Z,75.00
2023-05-12T12:21:57.757Z,75.00
2023-05-12T12:23:54.593Z,75.00
2023-05-12T12:25:54.655Z,75.00
2023-05-12T12:27:55.037Z,74.00
2023-05-12T12:29:54.590Z,75.00
2023-05-12T12:31:54.601Z,76.00
2023-05-12T12:33:54.631Z,75.00
2023-05-12T12:35:54.638Z,75.00
2023-05-12T12:37:54.699Z,74.00
2023-05-12T12:39:54.612Z,75.00
2023-05-12T12:41:54.649Z,75.00
2023-05-12T12:43:54.636Z,75.00
2023-05-12T12:45:54.792Z,76.00
2023-05-12T12:47:54.818Z,77.00
2023-05-12T12:50:54.558Z,77.00
2023-05-12T12:51:55.450Z,77.00
2023-05-12T12:54:54.663Z,77.00
2023-05-12T12:56:54.592Z,77.00
2023-05-12T12:58:54.581Z,77.00
2023-05-12T13:00:54.734Z,77.00
2023-05-12T13:02:54.644Z,76.00
2023-05-12T13:04:54.754Z,76.00
2023-05-12T13:06:54.633Z,77.00
2023-05-12T13:08:54.587Z,77.00
2023-05-12T13:10:54.613Z,77.00
2023-05-12T13:12:54.596Z,77.00
2023-05-12T13:14:54.592Z,77.00
2023-05-12T13:16:54.667Z,77.00
2023-05-12T13:18:54.674Z,78.00
2023-05-12T13:20:54.762Z,78.00
2023-05-12T13:22:54.729Z,78.00
2023-05-12T13:24:54.761Z,78.00
2023-05-12T13:26:54.683Z,78.00
2023-05-12T13:28:54.628Z,78.00
2023-05-12T13:30:55.387Z,78.00
2023-05-12T13:32:54.686Z,78.00
2023-05-12T13:34:54.602Z,78.00
2023-05-12T13:36:54.662Z,78.00
2023-05-12T13:38:54.590Z,78.00
2023-05-12T13:40:54.756Z,78.00
2023-05-12T13:42:54.872Z,78.00
2023-05-12T13:44:54.630Z,78.00
2023-05-12T13:46:54.728Z,78.00
2023-05-12T13:48:54.607Z,78.00
2023-05-12T13:50:54.625Z,78.00
2023-05-12T13:52:54.616Z,78.00
2023-05-12T13:54:57.679Z,78.00
2023-05-12T13:56:54.578Z,78.00
2023-05-12T13:58:54.721Z,77.00
2023-05-12T14:00:54.649Z,77.00
2023-05-12T14:02:55.017Z,77.00
2023-05-12T14:04:54.696Z,77.00
2023-05-12T14:06:54.742Z,77.00
2023-05-12T14:08:54.700Z,77.00
2023-05-12T14:10:54.626Z,77.00
2023-05-12T14:12:54.609Z,77.00
2023-05-12T14:14:58.189Z,77.00
2023-05-12T14:16:54.936Z,77.00
2023-05-12T14:18:54.689Z,77.00
2023-05-12T14:20:54.717Z,77.00
2023-05-12T14:22:54.719Z,77.00
2023-05-12T14:24:54.672Z,78.00
2023-05-12T14:26:54.719Z,78.00
2023-05-12T14:28:54.900Z,78.00
2023-05-12T14:30:54.784Z,79.00
2023-05-12T14:32:55.134Z,79.00
2023-05-12T14:34:54.673Z,79.00
2023-05-12T14:36:54.628Z,79.00
2023-05-12T14:38:54.966Z,79.00
2023-05-12T14:40:54.716Z,79.00
2023-05-12T14:42:54.683Z,79.00
2023-05-12T14:44:54.688Z,79.00
2023-05-12T14:46:54.795Z,79.00
2023-05-12T14:48:54.785Z,79.00
2023-05-12T14:50:54.831Z,79.00
2023-05-12T14:52:54.733Z,79.00
2023-05-12T14:54:54.794Z,79.00
2023-05-12T14:56:54.647Z,79.00
2023-05-12T14:58:54.775Z,79.00
2023-05-12T15:00:54.750Z,79.00
2023-05-12T15:02:59.733Z,79.00
2023-05-12T15:04:54.723Z,79.00
2023-05-12T15:06:54.627Z,79.00
2023-05-12T15:08:54.827Z,79.00
2023-05-12T15:10:54.793Z,79.00
2023-05-12T15:12:54.780Z,78.00
2023-05-12T15:14:54.692Z,79.00
2023-05-12T15:16:54.927Z,79.00
2023-05-12T15:18:54.862Z,79.00
2023-05-12T15:20:54.798Z,79.00
2023-05-12T15:22:54.795Z,79.00
2023-05-12T15:24:54.713Z,79.00
2023-05-12T15:26:54.813Z,79.00
2023-05-12T15:28:54.686Z,79.00
2023-05-12T15:30:54.793Z,79.00
2023-05-12T15:32:54.820Z,78.00
2023-05-12T15:34:54.784Z,78.00
2023-05-12T15:36:54.843Z,78.00
2023-05-12T15:38:54.763Z,78.00
2023-05-12T15:40:54.741Z,78.00
2023-05-12T15:42:54.902Z,78.00
2023-05-12T15:44:54.766Z,78.00
2023-05-12T15:46:54.977Z,78.00
2023-05-12T15:48:54.746Z,78.00
2023-05-12T15:50:54.705Z,78.00
2023-05-12T15:52:54.776Z,78.00
2023-05-12T15:54:54.789Z,78.00
2023-05-12T15:56:54.894Z,78.00
2023-05-12T15:58:54.750Z,78.00
2023-05-12T16:00:55.114Z,78.00
2023-05-12T16:02:54.834Z,78.00
2023-05-12T16:04:59.600Z,78.00
2023-05-12T16:06:54.746Z,78.00
2023-05-12T16:08:54.833Z,78.00
2023-05-12T16:10:54.814Z,77.00
2023-05-12T16:12:54.832Z,78.00
2023-05-12T16:14:54.766Z,78.00
2023-05-12T16:16:54.809Z,78.00
2023-05-12T16:18:54.747Z,78.00
2023-05-12T16:20:54.881Z,78.00
2023-05-12T16:22:54.782Z,78.00
2023-05-12T16:25:54.901Z,78.00
2023-05-12T16:27:54.986Z,78.00
2023-05-12T16:29:54.929Z,78.00
2023-05-12T16:31:54.907Z,78.00
2023-05-12T16:33:56.134Z,78.00
2023-05-12T16:35:58.075Z,78.00
2023-05-12T16:37:58.495Z,78.00
2023-05-12T16:39:54.774Z,78.00
2023-05-12T16:41:54.825Z,78.00
2023-05-12T16:43:54.800Z,78.00
2023-05-12T16:45:54.842Z,78.00
2023-05-12T16:47:54.876Z,78.00
2023-05-12T16:49:54.819Z,78.00
2023-05-12T16:51:54.946Z,78.00
2023-05-12T16:53:54.875Z,79.00
2023-05-12T16:55:54.925Z,79.00
2023-05-12T16:57:54.804Z,79.00
2023-05-12T16:59:54.849Z,79.00
2023-05-12T17:01:54.808Z,80.00
2023-05-12T17:03:55.501Z,80.00
2023-05-12T17:05:54.750Z,80.00
2023-05-12T17:07:54.830Z,80.00
2023-05-12T17:09:54.864Z,80.00
2023-05-12T17:11:19.411Z,80.00
2023-05-12T17:13:19.358Z,80.00
2023-05-12T17:15:19.316Z,80.00
2023-05-12T17:17:19.282Z,80.00
2023-05-12T17:19:20.443Z,80.00
2023-05-12T17:21:19.270Z,80.00
2023-05-12T17:23:21.137Z,80.00
2023-05-12T17:25:19.476Z,79.00
2023-05-12T17:27:19.429Z,79.00
2023-05-12T17:29:20.010Z,79.00
2023-05-12T17:31:19.400Z,79.00
2023-05-12T17:33:19.577Z,79.00
2023-05-12T17:35:24.215Z,79.00
2023-05-12T17:37:22.584Z,79.00
2023-05-12T17:39:19.675Z,79.00
2023-05-12T17:41:19.414Z,79.00
2023-05-12T17:43:19.283Z,79.00
2023-05-12T17:45:19.825Z,79.00
2023-05-12T17:47:19.362Z,79.00
2023-05-12T17:49:19.295Z,79.00
2023-05-12T17:51:19.562Z,78.00
2023-05-12T17:53:19.330Z,78.00
2023-05-12T17:56:19.450Z,78.00
2023-05-12T17:58:19.486Z,78.00
2023-05-12T18:00:19.289Z,78.00
2023-05-12T18:02:19.462Z,78.00
2023-05-12T18:04:19.311Z,78.00
2023-05-12T18:06:19.408Z,78.00
2023-05-12T18:08:22.120Z,79.00
2023-05-12T18:10:19.419Z,78.00
2023-05-12T18:12:19.400Z,78.00
2023-05-12T18:14:19.341Z,78.00
2023-05-12T18:16:28.611Z,78.00
2023-05-12T18:18:19.362Z,78.00
2023-05-12T18:20:19.741Z,78.00
2023-05-12T18:22:19.380Z,78.00
2023-05-12T18:24:19.421Z,78.00
2023-05-12T18:26:19.387Z,78.00
2023-05-12T18:28:24.299Z,78.00
2023-05-12T18:30:20.528Z,78.00
2023-05-12T18:32:19.379Z,78.00
2023-05-12T18:34:20.262Z,78.00
2023-05-12T18:36:19.335Z,79.00
2023-05-12T18:38:19.341Z,78.00
2023-05-12T18:40:22.780Z,78.00
2023-05-12T18:42:19.339Z,78.00
2023-05-12T18:44:19.406Z,78.00
2023-05-12T18:46:19.423Z,78.00
2023-05-12T18:48:19.326Z,78.00
2023-05-12T18:50:19.429Z,78.00
2023-05-12T18:52:22.064Z,78.00
2023-05-12T18:54:19.435Z,78.00
2023-05-12T18:56:19.338Z,78.00
2023-05-12T18:58:19.371Z,78.00
2023-05-12T19:00:19.360Z,78.00
2023-05-12T19:02:19.330Z,78.00
2023-05-12T19:04:19.400Z,78.00
2023-05-12T19:06:19.462Z,78.00
2023-05-12T19:08:19.392Z,78.00
2023-05-12T19:10:21.049Z,78.00
2023-05-12T19:12:19.411Z,78.00
2023-05-12T19:14:19.383Z,78.00
2023-05-12T19:16:19.459Z,78.00
2023-05-12T19:18:22.275Z,78.00
2023-05-12T19:20:19.433Z,78.00
2023-05-12T19:22:19.405Z,78.00
2023-05-12T19:24:19.365Z,78.00
2023-05-12T19:26:19.350Z,78.00
2023-05-12T19:28:19.368Z,78.00
2023-05-12T19:30:19.432Z,78.00
2023-05-12T19:32:19.360Z,78.00
2023-05-12T19:34:19.567Z,78.00
2023-05-12T19:36:19.408Z,78.00
2023-05-12T19:38:19.435Z,78.00
2023-05-12T19:40:19.467Z,78.00
2023-05-12T19:42:20.106Z,78.00
2023-05-12T19:44:19.736Z,78.00
2023-05-12T19:46:19.448Z,78.00
2023-05-12T19:48:20.026Z,78.00
2023-05-12T19:50:19.403Z,78.00
2023-05-12T19:52:19.350Z,78.00
2023-05-12T19:54:20.901Z,78.00
2023-05-12T19:56:19.443Z,78.00
2023-05-12T19:58:19.397Z,78.00
2023-05-12T20:00:19.454Z,78.00
2023-05-12T20:02:19.489Z,79.00
2023-05-12T20:04:19.459Z,79.00
2023-05-12T20:06:19.410Z,79.00
2023-05-12T20:08:19.474Z,79.00
2023-05-12T20:10:19.406Z,79.00
2023-05-12T20:12:19.473Z,79.00
2023-05-12T20:14:19.425Z,79.00
2023-05-12T20:16:19.390Z,79.00
2023-05-12T20:18:19.505Z,79.00
2023-05-12T20:20:22.348Z,79.00
2023-05-12T20:22:19.611Z,79.00
2023-05-12T20:24:19.402Z,79.00
2023-05-12T20:26:19.512Z,79.00
2023-05-12T20:28:19.509Z,79.00
2023-05-12T20:30:19.533Z,80.00
2023-05-12T20:32:19.478Z,80.00
2023-05-12T20:34:19.375Z,80.00
2023-05-12T20:36:19.546Z,80.00
2023-05-12T20:38:19.464Z,80.00
2023-05-12T20:40:19.430Z,81.00
2023-05-12T20:42:19.482Z,81.00
2023-05-12T20:44:19.438Z,81.00
2023-05-12T20:46:19.757Z,81.00
2023-05-12T20:48:19.491Z,81.00
2023-05-12T20:50:20.144Z,81.00
2023-05-12T20:52:19.424Z,81.00
2023-05-12T20:54:22.176Z,81.00
2023-05-12T20:56:19.538Z,81.00
2023-05-12T20:58:19.472Z,81.00
2023-05-12T21:00:19.484Z,81.00
2023-05-12T21:02:19.460Z,81.00
2023-05-12T21:04:19.513Z,81.00
2023-05-12T21:06:19.438Z,80.00
2023-05-12T21:08:19.457Z,80.00
2023-05-12T21:10:19.651Z,81.00
2023-05-12T21:12:19.439Z,81.00
2023-05-12T21:14:19.448Z,81.00
2023-05-12T21:16:19.478Z,81.00
2023-05-12T21:18:19.471Z,81.00
2023-05-12T21:20:19.721Z,81.00
2023-05-12T21:22:19.469Z,81.00
2023-05-12T21:24:19.499Z,81.00
2023-05-12T21:26:19.428Z,81.00
2023-05-12T21:28:19.490Z,81.00
2023-05-12T21:31:19.513Z,81.00
2023-05-12T21:33:19.470Z,81.00
2023-05-12T21:35:19.403Z,81.00
2023-05-12T21:37:19.614Z,81.00
2023-05-12T21:39:19.452Z,81.00
2023-05-12T21:41:19.460Z,81.00
2023-05-12T21:43:19.512Z,81.00
2023-05-12T21:45:19.404Z,81.00
2023-05-12T21:47:19.473Z,81.00
2023-05-12T21:49:19.469Z,81.00
2023-05-12T21:51:19.521Z,82.00
2023-05-12T21:53:19.447Z,82.00
2023-05-12T21:55:19.570Z,82.00
2023-05-12T21:57:19.484Z,82.00
2023-05-12T21:59:19.577Z,82.00
2023-05-12T22:01:19.564Z,82.00
2023-05-12T22:03:19.610Z,82.00
2023-05-12T22:05:19.478Z,82.00
2023-05-12T22:07:19.464Z,82.00
2023-05-12T22:09:19.502Z,82.00
2023-05-12T22:11:19.501Z,82.00
2023-05-12T22:13:20.168Z,82.00
2023-05-12T22:15:24.391Z,82.00
2023-05-12T22:17:19.458Z,82.00
2023-05-12T22:19:19.504Z,82.00
2023-05-12T22:21:19.498Z,82.00
2023-05-12T22:23:19.646Z,82.00
2023-05-12T22:25:19.523Z,82.00
2023-05-12T22:27:22.489Z,82.00
2023-05-12T22:29:19.499Z,82.00
2023-05-12T22:31:19.663Z,82.00
2023-05-12T22:33:19.520Z,82.00
2023-05-12T22:35:19.538Z,82.00
2023-05-12T22:37:19.468Z,82.00
2023-05-12T22:39:19.524Z,82.00
2023-05-12T22:41:19.496Z,82.00
2023-05-12T22:43:19.582Z,82.00
2023-05-12T22:45:19.520Z,82.00
2023-05-12T22:47:19.608Z,82.00
2023-05-12T22:49:19.553Z,82.00
2023-05-12T22:51:22.177Z,82.00
2023-05-12T22:53:22.777Z,82.00
2023-05-12T22:55:19.584Z,82.00
2023-05-12T22:57:19.505Z,82.00
2023-05-12T22:59:19.805Z,82.00
2023-05-12T23:01:19.600Z,82.00
2023-05-12T23:03:19.530Z,82.00
2023-05-12T23:05:19.504Z,82.00
2023-05-12T23:07:19.539Z,81.00
2023-05-12T23:09:19.578Z,81.00
2023-05-12T23:11:19.606Z,81.00
2023-05-12T23:13:19.602Z,81.00
2023-05-12T23:15:19.571Z,81.00
2023-05-12T23:17:19.615Z,81.00
2023-05-12T23:19:19.982Z,81.00
2023-05-12T23:21:19.643Z,81.00
2023-05-12T23:23:19.583Z,81.00
2023-05-12T23:27:30.262Z,81.00
2023-05-12T23:29:30.268Z,81.00
2023-05-12T23:31:30.353Z,81.00
2023-05-12T23:33:30.397Z,81.00
2023-05-12T23:35:30.321Z,81.00
2023-05-12T23:37:30.271Z,81.00
2023-05-12T23:39:30.316Z,81.00
2023-05-12T23:41:30.395Z,81.00
2023-05-12T23:43:30.323Z,81.00
2023-05-12T23:45:30.284Z,81.00
2023-05-12T23:47:30.389Z,81.00
2023-05-12T23:49:30.390Z,81.00
2023-05-12T23:51:30.300Z,81.00
2023-05-12T23:53:30.330Z,81.00
2023-05-12T23:55:30.465Z,81.00
2023-05-12T23:57:30.263Z,81.00
2023-05-12T23:59:33.563Z,81.00
